sensor_id;sensor_type;location;lat;lon;timestamp;pressure;altitude;pressure_sealevel;temperature
54746;BMP180;40640;48.130;11.356;2023-03-01T00:01:15;96040.00;;;2.00
54746;BMP180;40640;48.130;11.356;2023-03-01T00:05:18;96031.00;;;2.00
54746;BMP180;40640;48.130;11.356;2023-03-01T00:09:21;96028.00;;;2.00
54746;BMP180;40640;48.130;11.356;2023-03-01T00:13:25;96015.00;;;2.00
54746;BMP180;40640;48.130;11.356;2023-03-01T00:17:28;96030.00;;;1.90
54746;BMP180;40640;48.130;11.356;2023-03-01T00:21:31;96024.00;;;1.80
54746;BMP180;40640;48.130;11.356;2023-03-01T00:25:41;96022.00;;;2.10
54746;BMP180;40640;48.130;11.356;2023-03-01T00:29:45;96021.00;;;2.00
54746;BMP180;40640;48.130;11.356;2023-03-01T00:33:48;96016.00;;;1.90
54746;BMP180;40640;48.130;11.356;2023-03-01T00:37:51;96017.00;;;2.00
54746;BMP180;40640;48.130;11.356;2023-03-01T00:41:59;96009.00;;;2.10
54746;BMP180;40640;48.130;11.356;2023-03-01T00:46:05;96010.00;;;2.30
54746;BMP180;40640;48.130;11.356;2023-03-01T00:50:08;96013.00;;;2.00
54746;BMP180;40640;48.130;11.356;2023-03-01T00:54:11;95996.00;;;2.00
54746;BMP180;40640;48.130;11.356;2023-03-01T00:58:14;95999.00;;;1.90
54746;BMP180;40640;48.130;11.356;2023-03-01T01:02:19;95991.00;;;2.00
54746;BMP180;40640;48.130;11.356;2023-03-01T01:06:24;95990.00;;;1.90
54746;BMP180;40640;48.130;11.356;2023-03-01T01:10:27;95985.00;;;1.90
54746;BMP180;40640;48.130;11.356;2023-03-01T01:14:30;95973.00;;;1.90
54746;BMP180;40640;48.130;11.356;2023-03-01T01:18:34;95974.00;;;2.00
54746;BMP180;40640;48.130;11.356;2023-03-01T01:22:37;95966.00;;;1.90
54746;BMP180;40640;48.130;11.356;2023-03-01T01:26:41;95962.00;;;1.90
54746;BMP180;40640;48.130;11.356;2023-03-01T01:30:44;95970.00;;;1.90
54746;BMP180;40640;48.130;11.356;2023-03-01T01:34:48;95941.00;;;1.60
54746;BMP180;40640;48.130;11.356;2023-03-01T01:38:51;95946.00;;;1.50
54746;BMP180;40640;48.130;11.356;2023-03-01T01:42:54;95937.00;;;1.40
54746;BMP180;40640;48.130;11.356;2023-03-01T01:46:59;95945.00;;;1.40
54746;BMP180;40640;48.130;11.356;2023-03-01T01:51:04;95932.00;;;1.60
54746;BMP180;40640;48.130;11.356;2023-03-01T01:55:11;95929.00;;;1.60
54746;BMP180;40640;48.130;11.356;2023-03-01T01:59:14;95933.00;;;1.80
54746;BMP180;40640;48.130;11.356;2023-03-01T02:03:22;95931.00;;;1.80
54746;BMP180;40640;48.130;11.356;2023-03-01T02:07:32;95917.00;;;1.90
54746;BMP180;40640;48.130;11.356;2023-03-01T02:11:36;95922.00;;;1.80
54746;BMP180;40640;48.130;11.356;2023-03-01T02:15:40;95923.00;;;1.50
54746;BMP180;40640;48.130;11.356;2023-03-01T02:19:55;95921.00;;;1.60
54746;BMP180;40640;48.130;11.356;2023-03-01T02:24:22;95905.00;;;1.50
54746;BMP180;40640;48.130;11.356;2023-03-01T02:28:31;95915.00;;;1.60
54746;BMP180;40640;48.130;11.356;2023-03-01T02:32:34;95913.00;;;1.80
54746;BMP180;40640;48.130;11.356;2023-03-01T02:36:40;95909.00;;;1.80
54746;BMP180;40640;48.130;11.356;2023-03-01T02:40:43;95915.00;;;2.00
54746;BMP180;40640;48.130;11.356;2023-03-01T02:44:50;95911.00;;;2.00
54746;BMP180;40640;48.130;11.356;2023-03-01T02:48:54;95905.00;;;2.10
54746;BMP180;40640;48.130;11.356;2023-03-01T02:53:01;95901.00;;;2.20
54746;BMP180;40640;48.130;11.356;2023-03-01T02:57:05;95899.00;;;2.30
54746;BMP180;40640;48.130;11.356;2023-03-01T03:01:10;95896.00;;;2.20
54746;BMP180;40640;48.130;11.356;2023-03-01T03:05:17;95890.00;;;2.20
54746;BMP180;40640;48.130;11.356;2023-03-01T03:09:21;95897.00;;;2.30
54746;BMP180;40640;48.130;11.356;2023-03-01T03:13:23;95911.00;;;2.20
54746;BMP180;40640;48.130;11.356;2023-03-01T03:17:31;95904.00;;;2.00
54746;BMP180;40640;48.130;11.356;2023-03-01T03:21:34;95903.00;;;2.10
54746;BMP180;40640;48.130;11.356;2023-03-01T03:25:37;95905.00;;;2.00
54746;BMP180;40640;48.130;11.356;2023-03-01T03:29:40;95894.00;;;2.10
54746;BMP180;40640;48.130;11.356;2023-03-01T03:33:44;95892.00;;;2.10
54746;BMP180;40640;48.130;11.356;2023-03-01T03:37:47;95902.00;;;2.30
54746;BMP180;40640;48.130;11.356;2023-03-01T03:42:07;95888.00;;;2.20
54746;BMP180;40640;48.130;11.356;2023-03-01T03:46:12;95881.00;;;2.10
54746;BMP180;40640;48.130;11.356;2023-03-01T03:50:17;95876.00;;;2.10
54746;BMP180;40640;48.130;11.356;2023-03-01T03:54:20;95876.00;;;1.60
54746;BMP180;40640;48.130;11.356;2023-03-01T03:58:23;95875.00;;;1.70
54746;BMP180;40640;48.130;11.356;2023-03-01T04:02:26;95861.00;;;1.70
54746;BMP180;40640;48.130;11.356;2023-03-01T04:06:31;95856.00;;;1.70
54746;BMP180;40640;48.130;11.356;2023-03-01T04:10:35;95866.00;;;1.60
54746;BMP180;40640;48.130;11.356;2023-03-01T04:14:38;95858.00;;;1.80
54746;BMP180;40640;48.130;11.356;2023-03-01T04:18:41;95854.00;;;1.60
54746;BMP180;40640;48.130;11.356;2023-03-01T04:22:45;95853.00;;;1.80
54746;BMP180;40640;48.130;11.356;2023-03-01T04:26:48;95859.00;;;1.60
54746;BMP180;40640;48.130;11.356;2023-03-01T04:30:52;95858.00;;;1.80
54746;BMP180;40640;48.130;11.356;2023-03-01T04:34:55;95857.00;;;1.30
54746;BMP180;40640;48.130;11.356;2023-03-01T04:39:00;95857.00;;;1.10
54746;BMP180;40640;48.130;11.356;2023-03-01T04:43:13;95852.00;;;1.30
54746;BMP180;40640;48.130;11.356;2023-03-01T04:47:16;95845.00;;;1.20
54746;BMP180;40640;48.130;11.356;2023-03-01T04:51:19;95855.00;;;1.10
54746;BMP180;40640;48.130;11.356;2023-03-01T04:55:24;95842.00;;;1.10
54746;BMP180;40640;48.130;11.356;2023-03-01T04:59:27;95845.00;;;1.00
54746;BMP180;40640;48.130;11.356;2023-03-01T05:03:30;95838.00;;;1.00
54746;BMP180;40640;48.130;11.356;2023-03-01T05:07:33;95834.00;;;0.90
54746;BMP180;40640;48.130;11.356;2023-03-01T05:11:37;95832.00;;;0.90
54746;BMP180;40640;48.130;11.356;2023-03-01T05:15:40;95841.00;;;0.90
54746;BMP180;40640;48.130;11.356;2023-03-01T05:19:43;95827.00;;;1.20
54746;BMP180;40640;48.130;11.356;2023-03-01T05:23:46;95827.00;;;1.40
54746;BMP180;40640;48.130;11.356;2023-03-01T05:27:50;95837.00;;;1.10
54746;BMP180;40640;48.130;11.356;2023-03-01T05:31:54;95828.00;;;1.00
54746;BMP180;40640;48.130;11.356;2023-03-01T05:35:59;95825.00;;;0.80
54746;BMP180;40640;48.130;11.356;2023-03-01T05:40:03;95824.00;;;0.70
54746;BMP180;40640;48.130;11.356;2023-03-01T05:44:08;95816.00;;;0.50
54746;BMP180;40640;48.130;11.356;2023-03-01T05:48:13;95817.00;;;0.30
54746;BMP180;40640;48.130;11.356;2023-03-01T05:52:16;95809.00;;;0.40
54746;BMP180;40640;48.130;11.356;2023-03-01T05:56:18;95812.00;;;0.60
54746;BMP180;40640;48.130;11.356;2023-03-01T06:00:26;95826.00;;;0.70
54746;BMP180;40640;48.130;11.356;2023-03-01T06:04:29;95816.00;;;0.60
54746;BMP180;40640;48.130;11.356;2023-03-01T06:08:32;95817.00;;;0.50
54746;BMP180;40640;48.130;11.356;2023-03-01T06:12:36;95825.00;;;0.50
54746;BMP180;40640;48.130;11.356;2023-03-01T06:16:41;95836.00;;;0.20
54746;BMP180;40640;48.130;11.356;2023-03-01T06:20:43;95839.00;;;0.70
54746;BMP180;40640;48.130;11.356;2023-03-01T06:24:46;95833.00;;;0.80
54746;BMP180;40640;48.130;11.356;2023-03-01T06:28:49;95829.00;;;0.60
54746;BMP180;40640;48.130;11.356;2023-03-01T06:32:53;95833.00;;;0.30
54746;BMP180;40640;48.130;11.356;2023-03-01T06:37:02;95836.00;;;0.20
54746;BMP180;40640;48.130;11.356;2023-03-01T06:41:06;95835.00;;;0.20
54746;BMP180;40640;48.130;11.356;2023-03-01T06:45:10;95832.00;;;0.50
54746;BMP180;40640;48.130;11.356;2023-03-01T06:49:14;95835.00;;;0.50
54746;BMP180;40640;48.130;11.356;2023-03-01T06:53:19;95828.00;;;0.50
54746;BMP180;40640;48.130;11.356;2023-03-01T06:57:21;95836.00;;;0.90
54746;BMP180;40640;48.130;11.356;2023-03-01T07:01:24;95841.00;;;0.90
54746;BMP180;40640;48.130;11.356;2023-03-01T07:05:29;95842.00;;;1.30
54746;BMP180;40640;48.130;11.356;2023-03-01T07:09:32;95838.00;;;0.90
54746;BMP180;40640;48.130;11.356;2023-03-01T07:13:35;95844.00;;;1.00
54746;BMP180;40640;48.130;11.356;2023-03-01T07:17:38;95835.00;;;0.90
54746;BMP180;40640;48.130;11.356;2023-03-01T07:21:43;95837.00;;;1.20
54746;BMP180;40640;48.130;11.356;2023-03-01T07:25:51;95829.00;;;1.00
54746;BMP180;40640;48.130;11.356;2023-03-01T07:29:54;95837.00;;;1.30
54746;BMP180;40640;48.130;11.356;2023-03-01T07:33:57;95827.00;;;0.90
54746;BMP180;40640;48.130;11.356;2023-03-01T07:38:01;95825.00;;;0.90
54746;BMP180;40640;48.130;11.356;2023-03-01T07:42:04;95812.00;;;1.10
54746;BMP180;40640;48.130;11.356;2023-03-01T07:46:07;95808.00;;;0.90
54746;BMP180;40640;48.130;11.356;2023-03-01T07:50:10;95823.00;;;1.00
54746;BMP180;40640;48.130;11.356;2023-03-01T07:54:16;95813.00;;;0.70
54746;BMP180;40640;48.130;11.356;2023-03-01T07:58:19;95817.00;;;0.70
54746;BMP180;40640;48.130;11.356;2023-03-01T08:02:22;95806.00;;;0.90
54746;BMP180;40640;48.130;11.356;2023-03-01T08:06:25;95802.00;;;0.70
54746;BMP180;40640;48.130;11.356;2023-03-01T08:10:29;95811.00;;;0.90
54746;BMP180;40640;48.130;11.356;2023-03-01T08:14:32;95805.00;;;0.80
54746;BMP180;40640;48.130;11.356;2023-03-01T08:18:35;95814.00;;;1.00
54746;BMP180;40640;48.130;11.356;2023-03-01T08:22:38;95808.00;;;0.90
54746;BMP180;40640;48.130;11.356;2023-03-01T08:26:42;95807.00;;;0.90
54746;BMP180;40640;48.130;11.356;2023-03-01T08:30:45;95813.00;;;1.10
54746;BMP180;40640;48.130;11.356;2023-03-01T08:34:48;95811.00;;;1.20
54746;BMP180;40640;48.130;11.356;2023-03-01T08:38:51;95805.00;;;1.00
54746;BMP180;40640;48.130;11.356;2023-03-01T08:42:55;95808.00;;;1.40
54746;BMP180;40640;48.130;11.356;2023-03-01T08:46:59;95798.00;;;1.20
54746;BMP180;40640;48.130;11.356;2023-03-01T08:51:08;95785.00;;;1.30
54746;BMP180;40640;48.130;11.356;2023-03-01T08:55:11;95789.00;;;1.30
54746;BMP180;40640;48.130;11.356;2023-03-01T08:59:16;95780.00;;;1.40
54746;BMP180;40640;48.130;11.356;2023-03-01T09:03:19;95784.00;;;1.50
54746;BMP180;40640;48.130;11.356;2023-03-01T09:07:22;95782.00;;;1.90
54746;BMP180;40640;48.130;11.356;2023-03-01T09:11:30;95772.00;;;1.90
54746;BMP180;40640;48.130;11.356;2023-03-01T09:15:36;95780.00;;;1.70
54746;BMP180;40640;48.130;11.356;2023-03-01T09:19:39;95785.00;;;1.90
54746;BMP180;40640;48.130;11.356;2023-03-01T09:23:44;95776.00;;;1.70
54746;BMP180;40640;48.130;11.356;2023-03-01T09:27:47;95783.00;;;1.80
54746;BMP180;40640;48.130;11.356;2023-03-01T09:31:51;95772.00;;;1.70
54746;BMP180;40640;48.130;11.356;2023-03-01T09:35:57;95776.00;;;2.40
54746;BMP180;40640;48.130;11.356;2023-03-01T09:40:00;95778.00;;;2.30
54746;BMP180;40640;48.130;11.356;2023-03-01T09:44:08;95777.00;;;2.40
54746;BMP180;40640;48.130;11.356;2023-03-01T09:48:17;95777.00;;;2.30
54746;BMP180;40640;48.130;11.356;2023-03-01T09:52:28;95789.00;;;2.90
54746;BMP180;40640;48.130;11.356;2023-03-01T09:56:34;95778.00;;;3.40
54746;BMP180;40640;48.130;11.356;2023-03-01T10:00:43;95784.00;;;3.60
54746;BMP180;40640;48.130;11.356;2023-03-01T10:04:49;95779.00;;;2.70
54746;BMP180;40640;48.130;11.356;2023-03-01T10:08:54;95766.00;;;2.40
54746;BMP180;40640;48.130;11.356;2023-03-01T10:12:59;95770.00;;;2.50
54746;BMP180;40640;48.130;11.356;2023-03-01T10:17:03;95759.00;;;3.00
54746;BMP180;40640;48.130;11.356;2023-03-01T10:21:14;95760.00;;;3.20
54746;BMP180;40640;48.130;11.356;2023-03-01T10:25:25;95769.00;;;2.80
54746;BMP180;40640;48.130;11.356;2023-03-01T10:29:39;95758.00;;;2.50
54746;BMP180;40640;48.130;11.356;2023-03-01T10:33:43;95753.00;;;2.70
54746;BMP180;40640;48.130;11.356;2023-03-01T10:37:58;95756.00;;;2.70
54746;BMP180;40640;48.130;11.356;2023-03-01T10:42:13;95759.00;;;2.70
54746;BMP180;40640;48.130;11.356;2023-03-01T10:46:24;95753.00;;;3.50
54746;BMP180;40640;48.130;11.356;2023-03-01T10:50:27;95762.00;;;3.60
54746;BMP180;40640;48.130;11.356;2023-03-01T10:54:32;95750.00;;;3.60
54746;BMP180;40640;48.130;11.356;2023-03-01T10:58:36;95738.00;;;4.00
54746;BMP180;40640;48.130;11.356;2023-03-01T11:02:39;95739.00;;;5.10
54746;BMP180;40640;48.130;11.356;2023-03-01T11:06:43;95751.00;;;7.70
54746;BMP180;40640;48.130;11.356;2023-03-01T11:10:47;95744.00;;;7.80
54746;BMP180;40640;48.130;11.356;2023-03-01T11:14:52;95735.00;;;8.40
54746;BMP180;40640;48.130;11.356;2023-03-01T11:18:58;95735.00;;;9.90
54746;BMP180;40640;48.130;11.356;2023-03-01T11:23:04;95733.00;;;11.10
54746;BMP180;40640;48.130;11.356;2023-03-01T11:27:17;95723.00;;;12.50
54746;BMP180;40640;48.130;11.356;2023-03-01T11:31:23;95731.00;;;12.40
54746;BMP180;40640;48.130;11.356;2023-03-01T11:35:27;95731.00;;;13.70
54746;BMP180;40640;48.130;11.356;2023-03-01T11:39:36;95716.00;;;13.60
54746;BMP180;40640;48.130;11.356;2023-03-01T11:43:49;95716.00;;;14.70
54746;BMP180;40640;48.130;11.356;2023-03-01T11:48:02;95709.00;;;15.40
54746;BMP180;40640;48.130;11.356;2023-03-01T11:52:13;95703.00;;;14.90
54746;BMP180;40640;48.130;11.356;2023-03-01T11:56:26;95699.00;;;16.80
54746;BMP180;40640;48.130;11.356;2023-03-01T12:00:42;95703.00;;;16.90
54746;BMP180;40640;48.130;11.356;2023-03-01T12:14:12;95692.00;;;17.70
54746;BMP180;40640;48.130;11.356;2023-03-01T12:23:03;95684.00;;;16.60
54746;BMP180;40640;48.130;11.356;2023-03-01T12:27:38;95674.00;;;17.40
54746;BMP180;40640;48.130;11.356;2023-03-01T12:32:08;95680.00;;;16.50
54746;BMP180;40640;48.130;11.356;2023-03-01T12:36:35;95666.00;;;14.50
54746;BMP180;40640;48.130;11.356;2023-03-01T12:40:59;95671.00;;;14.70
54746;BMP180;40640;48.130;11.356;2023-03-01T12:50:39;95655.00;;;17.00
54746;BMP180;40640;48.130;11.356;2023-03-01T12:54:45;95679.00;;;16.50
54746;BMP180;40640;48.130;11.356;2023-03-01T12:58:57;95664.00;;;15.30
54746;BMP180;40640;48.130;11.356;2023-03-01T13:03:12;95663.00;;;16.40
54746;BMP180;40640;48.130;11.356;2023-03-01T13:07:25;95662.00;;;17.10
54746;BMP180;40640;48.130;11.356;2023-03-01T13:11:33;95671.00;;;17.10
54746;BMP180;40640;48.130;11.356;2023-03-01T13:15:37;95662.00;;;17.30
54746;BMP180;40640;48.130;11.356;2023-03-01T13:19:56;95661.00;;;17.80
54746;BMP180;40640;48.130;11.356;2023-03-01T13:23:59;95664.00;;;18.00
54746;BMP180;40640;48.130;11.356;2023-03-01T13:28:36;95665.00;;;16.10
54746;BMP180;40640;48.130;11.356;2023-03-01T13:32:42;95671.00;;;14.40
54746;BMP180;40640;48.130;11.356;2023-03-01T13:36:47;95670.00;;;14.80
54746;BMP180;40640;48.130;11.356;2023-03-01T13:40:58;95673.00;;;15.70
54746;BMP180;40640;48.130;11.356;2023-03-01T13:45:05;95654.00;;;16.90
54746;BMP180;40640;48.130;11.356;2023-03-01T13:49:19;95652.00;;;17.00
54746;BMP180;40640;48.130;11.356;2023-03-01T13:53:25;95655.00;;;16.00
54746;BMP180;40640;48.130;11.356;2023-03-01T13:57:32;95663.00;;;16.10
54746;BMP180;40640;48.130;11.356;2023-03-01T14:06:12;95637.00;;;15.40
54746;BMP180;40640;48.130;11.356;2023-03-01T14:10:18;95644.00;;;14.80
54746;BMP180;40640;48.130;11.356;2023-03-01T14:14:41;95641.00;;;14.40
54746;BMP180;40640;48.130;11.356;2023-03-01T14:18:52;95626.00;;;14.00
54746;BMP180;40640;48.130;11.356;2023-03-01T14:23:01;95633.00;;;14.90
54746;BMP180;40640;48.130;11.356;2023-03-01T14:27:10;95627.00;;;15.10
54746;BMP180;40640;48.130;11.356;2023-03-01T14:31:32;95617.00;;;15.10
54746;BMP180;40640;48.130;11.356;2023-03-01T14:35:54;95605.00;;;13.00
54746;BMP180;40640;48.130;11.356;2023-03-01T14:40:02;95590.00;;;12.50
54746;BMP180;40640;48.130;11.356;2023-03-01T14:44:07;95587.00;;;11.70
54746;BMP180;40640;48.130;11.356;2023-03-01T14:48:15;95597.00;;;12.20
54746;BMP180;40640;48.130;11.356;2023-03-01T14:52:20;95604.00;;;12.40
54746;BMP180;40640;48.130;11.356;2023-03-01T14:56:25;95599.00;;;12.40
54746;BMP180;40640;48.130;11.356;2023-03-01T15:00:29;95596.00;;;11.60
54746;BMP180;40640;48.130;11.356;2023-03-01T15:04:33;95589.00;;;10.70
54746;BMP180;40640;48.130;11.356;2023-03-01T15:08:37;95594.00;;;10.00
54746;BMP180;40640;48.130;11.356;2023-03-01T15:12:43;95581.00;;;10.00
54746;BMP180;40640;48.130;11.356;2023-03-01T15:16:46;95584.00;;;9.50
54746;BMP180;40640;48.130;11.356;2023-03-01T15:20:51;95590.00;;;8.90
54746;BMP180;40640;48.130;11.356;2023-03-01T15:24:54;95578.00;;;8.70
54746;BMP180;40640;48.130;11.356;2023-03-01T15:29:00;95582.00;;;8.30
54746;BMP180;40640;48.130;11.356;2023-03-01T15:33:36;95572.00;;;8.10
54746;BMP180;40640;48.130;11.356;2023-03-01T15:37:44;95576.00;;;7.90
54746;BMP180;40640;48.130;11.356;2023-03-01T15:41:50;95567.00;;;7.80
54746;BMP180;40640;48.130;11.356;2023-03-01T15:45:57;95568.00;;;7.40
54746;BMP180;40640;48.130;11.356;2023-03-01T15:50:00;95556.00;;;7.80
54746;BMP180;40640;48.130;11.356;2023-03-01T15:54:06;95566.00;;;7.90
54746;BMP180;40640;48.130;11.356;2023-03-01T15:58:12;95561.00;;;7.60
54746;BMP180;40640;48.130;11.356;2023-03-01T16:02:17;95556.00;;;7.50
54746;BMP180;40640;48.130;11.356;2023-03-01T16:06:22;95560.00;;;7.30
54746;BMP180;40640;48.130;11.356;2023-03-01T16:10:25;95551.00;;;7.40
54746;BMP180;40640;48.130;11.356;2023-03-01T16:14:28;95561.00;;;7.40
54746;BMP180;40640;48.130;11.356;2023-03-01T16:18:32;95559.00;;;7.20
54746;BMP180;40640;48.130;11.356;2023-03-01T16:22:35;95566.00;;;7.50
54746;BMP180;40640;48.130;11.356;2023-03-01T16:26:38;95564.00;;;7.40
54746;BMP180;40640;48.130;11.356;2023-03-01T16:30:46;95554.00;;;7.30
54746;BMP180;40640;48.130;11.356;2023-03-01T16:34:51;95563.00;;;7.30
54746;BMP180;40640;48.130;11.356;2023-03-01T16:38:54;95554.00;;;7.40
54746;BMP180;40640;48.130;11.356;2023-03-01T16:42:58;95571.00;;;7.30
54746;BMP180;40640;48.130;11.356;2023-03-01T16:47:02;95553.00;;;7.40
54746;BMP180;40640;48.130;11.356;2023-03-01T16:51:07;95564.00;;;7.50
54746;BMP180;40640;48.130;11.356;2023-03-01T16:55:11;95557.00;;;7.50
54746;BMP180;40640;48.130;11.356;2023-03-01T16:59:13;95573.00;;;7.60
54746;BMP180;40640;48.130;11.356;2023-03-01T17:03:16;95565.00;;;7.60
54746;BMP180;40640;48.130;11.356;2023-03-01T17:07:21;95573.00;;;7.60
54746;BMP180;40640;48.130;11.356;2023-03-01T17:11:24;95568.00;;;7.60
54746;BMP180;40640;48.130;11.356;2023-03-01T17:15:27;95579.00;;;7.70
54746;BMP180;40640;48.130;11.356;2023-03-01T17:19:30;95592.00;;;7.60
54746;BMP180;40640;48.130;11.356;2023-03-01T17:23:35;95578.00;;;7.60
54746;BMP180;40640;48.130;11.356;2023-03-01T17:27:40;95595.00;;;7.70
54746;BMP180;40640;48.130;11.356;2023-03-01T17:31:43;95597.00;;;7.40
54746;BMP180;40640;48.130;11.356;2023-03-01T17:35:46;95600.00;;;7.50
54746;BMP180;40640;48.130;11.356;2023-03-01T17:39:50;95586.00;;;7.00
54746;BMP180;40640;48.130;11.356;2023-03-01T17:43:53;95590.00;;;6.90
54746;BMP180;40640;48.130;11.356;2023-03-01T17:47:56;95598.00;;;6.80
54746;BMP180;40640;48.130;11.356;2023-03-01T17:51:59;95594.00;;;6.40
54746;BMP180;40640;48.130;11.356;2023-03-01T17:56:05;95589.00;;;6.20
54746;BMP180;40640;48.130;11.356;2023-03-01T18:00:11;95600.00;;;6.10
54746;BMP180;40640;48.130;11.356;2023-03-01T18:04:14;95608.00;;;6.00
54746;BMP180;40640;48.130;11.356;2023-03-01T18:08:19;95613.00;;;5.90
54746;BMP180;40640;48.130;11.356;2023-03-01T18:12:23;95610.00;;;5.80
54746;BMP180;40640;48.130;11.356;2023-03-01T18:16:26;95615.00;;;5.70
54746;BMP180;40640;48.130;11.356;2023-03-01T18:20:32;95612.00;;;5.80
54746;BMP180;40640;48.130;11.356;2023-03-01T18:24:36;95620.00;;;5.80
54746;BMP180;40640;48.130;11.356;2023-03-01T18:28:40;95606.00;;;5.70
54746;BMP180;40640;48.130;11.356;2023-03-01T18:32:43;95620.00;;;5.80
54746;BMP180;40640;48.130;11.356;2023-03-01T18:36:46;95605.00;;;5.70
54746;BMP180;40640;48.130;11.356;2023-03-01T18:41:09;95611.00;;;5.60
54746;BMP180;40640;48.130;11.356;2023-03-01T18:45:13;95607.00;;;5.70
54746;BMP180;40640;48.130;11.356;2023-03-01T18:49:17;95608.00;;;5.70
54746;BMP180;40640;48.130;11.356;2023-03-01T18:53:20;95597.00;;;5.60
54746;BMP180;40640;48.130;11.356;2023-03-01T18:57:23;95594.00;;;5.50
54746;BMP180;40640;48.130;11.356;2023-03-01T19:01:29;95594.00;;;5.50
54746;BMP180;40640;48.130;11.356;2023-03-01T19:05:39;95601.00;;;5.60
54746;BMP180;40640;48.130;11.356;2023-03-01T19:09:42;95588.00;;;5.40
54746;BMP180;40640;48.130;11.356;2023-03-01T19:13:46;95594.00;;;5.30
54746;BMP180;40640;48.130;11.356;2023-03-01T19:17:53;95589.00;;;5.40
54746;BMP180;40640;48.130;11.356;2023-03-01T19:21:57;95585.00;;;5.40
54746;BMP180;40640;48.130;11.356;2023-03-01T19:26:09;95592.00;;;5.20
54746;BMP180;40640;48.130;11.356;2023-03-01T19:30:12;95580.00;;;5.30
54746;BMP180;40640;48.130;11.356;2023-03-01T19:34:21;95587.00;;;5.20
54746;BMP180;40640;48.130;11.356;2023-03-01T19:38:28;95575.00;;;5.10
54746;BMP180;40640;48.130;11.356;2023-03-01T19:42:31;95580.00;;;5.10
54746;BMP180;40640;48.130;11.356;2023-03-01T19:46:33;95575.00;;;5.00
54746;BMP180;40640;48.130;11.356;2023-03-01T19:50:38;95566.00;;;5.00
54746;BMP180;40640;48.130;11.356;2023-03-01T19:54:41;95567.00;;;5.00
54746;BMP180;40640;48.130;11.356;2023-03-01T19:58:44;95572.00;;;4.90
54746;BMP180;40640;48.130;11.356;2023-03-01T20:02:48;95567.00;;;4.80
54746;BMP180;40640;48.130;11.356;2023-03-01T20:06:52;95564.00;;;4.80
54746;BMP180;40640;48.130;11.356;2023-03-01T20:11:00;95563.00;;;4.80
54746;BMP180;40640;48.130;11.356;2023-03-01T20:15:04;95550.00;;;4.80
54746;BMP180;40640;48.130;11.356;2023-03-01T20:19:07;95551.00;;;4.90
54746;BMP180;40640;48.130;11.356;2023-03-01T20:23:11;95561.00;;;4.80
54746;BMP180;40640;48.130;11.356;2023-03-01T20:27:14;95539.00;;;4.80
54746;BMP180;40640;48.130;11.356;2023-03-01T20:31:18;95552.00;;;4.80
54746;BMP180;40640;48.130;11.356;2023-03-01T20:35:21;95557.00;;;4.80
54746;BMP180;40640;48.130;11.356;2023-03-01T20:39:26;95551.00;;;4.70
54746;BMP180;40640;48.130;11.356;2023-03-01T20:43:29;95549.00;;;4.50
54746;BMP180;40640;48.130;11.356;2023-03-01T20:47:32;95540.00;;;4.50
54746;BMP180;40640;48.130;11.356;2023-03-01T20:51:34;95533.00;;;4.50
54746;BMP180;40640;48.130;11.356;2023-03-01T20:55:39;95539.00;;;4.50
54746;BMP180;40640;48.130;11.356;2023-03-01T20:59:42;95536.00;;;4.50
54746;BMP180;40640;48.130;11.356;2023-03-01T21:03:44;95536.00;;;4.50
54746;BMP180;40640;48.130;11.356;2023-03-01T21:07:48;95538.00;;;4.50
54746;BMP180;40640;48.130;11.356;2023-03-01T21:11:53;95539.00;;;4.50
54746;BMP180;40640;48.130;11.356;2023-03-01T21:15:57;95540.00;;;4.50
54746;BMP180;40640;48.130;11.356;2023-03-01T21:20:01;95532.00;;;4.20
54746;BMP180;40640;48.130;11.356;2023-03-01T21:24:05;95524.00;;;4.10
54746;BMP180;40640;48.130;11.356;2023-03-01T21:28:12;95521.00;;;3.90
54746;BMP180;40640;48.130;11.356;2023-03-01T21:32:14;95525.00;;;3.90
54746;BMP180;40640;48.130;11.356;2023-03-01T21:36:18;95518.00;;;3.80
54746;BMP180;40640;48.130;11.356;2023-03-01T21:40:22;95519.00;;;3.70
54746;BMP180;40640;48.130;11.356;2023-03-01T21:44:27;95515.00;;;3.80
54746;BMP180;40640;48.130;11.356;2023-03-01T21:48:31;95513.00;;;3.80
54746;BMP180;40640;48.130;11.356;2023-03-01T21:52:34;95497.00;;;3.80
54746;BMP180;40640;48.130;11.356;2023-03-01T21:56:37;95507.00;;;3.90
54746;BMP180;40640;48.130;11.356;2023-03-01T22:00:41;95496.00;;;4.00
54746;BMP180;40640;48.130;11.356;2023-03-01T22:04:44;95508.00;;;3.80
54746;BMP180;40640;48.130;11.356;2023-03-01T22:08:48;95503.00;;;3.80
54746;BMP180;40640;48.130;11.356;2023-03-01T22:12:52;95502.00;;;3.60
54746;BMP180;40640;48.130;11.356;2023-03-01T22:16:56;95499.00;;;3.60
54746;BMP180;40640;48.130;11.356;2023-03-01T22:21:03;95499.00;;;3.80
54746;BMP180;40640;48.130;11.356;2023-03-01T22:25:07;95492.00;;;4.00
54746;BMP180;40640;48.130;11.356;2023-03-01T22:29:12;95495.00;;;4.10
54746;BMP180;40640;48.130;11.356;2023-03-01T22:33:16;95487.00;;;4.00
54746;BMP180;40640;48.130;11.356;2023-03-01T22:37:19;95493.00;;;4.00
54746;BMP180;40640;48.130;11.356;2023-03-01T22:41:22;95493.00;;;4.10
54746;BMP180;40640;48.130;11.356;2023-03-01T22:45:27;95488.00;;;4.30
54746;BMP180;40640;48.130;11.356;2023-03-01T22:49:31;95482.00;;;4.40
54746;BMP180;40640;48.130;11.356;2023-03-01T22:53:34;95474.00;;;4.40
54746;BMP180;40640;48.130;11.356;2023-03-01T22:57:37;95475.00;;;4.50
54746;BMP180;40640;48.130;11.356;2023-03-01T23:01:41;95479.00;;;4.50
54746;BMP180;40640;48.130;11.356;2023-03-01T23:05:49;95464.00;;;4.40
54746;BMP180;40640;48.130;11.356;2023-03-01T23:09:52;95471.00;;;4.40
54746;BMP180;40640;48.130;11.356;2023-03-01T23:13:55;95464.00;;;4.40
54746;BMP180;40640;48.130;11.356;2023-03-01T23:17:59;95461.00;;;4.30
54746;BMP180;40640;48.130;11.356;2023-03-01T23:22:03;95460.00;;;4.30
54746;BMP180;40640;48.130;11.356;2023-03-01T23:26:06;95463.00;;;4.30
54746;BMP180;40640;48.130;11.356;2023-03-01T23:30:10;95463.00;;;4.30
54746;BMP180;40640;48.130;11.356;2023-03-01T23:34:13;95472.00;;;4.30
54746;BMP180;40640;48.130;11.356;2023-03-01T23:38:17;95469.00;;;4.30
54746;BMP180;40640;48.130;11.356;2023-03-01T23:42:21;95463.00;;;4.20
54746;BMP180;40640;48.130;11.356;2023-03-01T23:46:25;95468.00;;;4.20
54746;BMP180;40640;48.130;11.356;2023-03-01T23:50:28;95466.00;;;4.20
54746;BMP180;40640;48.130;11.356;2023-03-01T23:54:33;95459.00;;;4.20